sensor_id;sensor_type;location;lat;lon;timestamp;pressure;altitude;pressure_sealevel;temperature;humidity
58975;BME280;44751;52.236;5.178;2023-06-04T00:01:09;102179.44;;;14.29;98.48
58975;BME280;44751;52.236;5.178;2023-06-04T00:03:35;102180.47;;;14.36;98.15
58975;BME280;44751;52.236;5.178;2023-06-04T00:06:02;102172.34;;;14.19;98.52
58975;BME280;44751;52.236;5.178;2023-06-04T00:08:28;102182.84;;;14.23;98.68
58975;BME280;44751;52.236;5.178;2023-06-04T00:10:59;102173.69;;;14.15;98.42
58975;BME280;44751;52.236;5.178;2023-06-04T00:13:25;102179.63;;;14.02;99.65
58975;BME280;44751;52.236;5.178;2023-06-04T00:15:52;102171.81;;;14.07;99.17
58975;BME280;44751;52.236;5.178;2023-06-04T00:18:18;102177.78;;;14.03;99.01
58975;BME280;44751;52.236;5.178;2023-06-04T00:20:45;102182.19;;;14.04;100.00
58975;BME280;44751;52.236;5.178;2023-06-04T00:23:16;102183.69;;;13.98;100.00
58975;BME280;44751;52.236;5.178;2023-06-04T00:25:43;102178.28;;;13.90;100.00
58975;BME280;44751;52.236;5.178;2023-06-04T00:28:09;102170.63;;;13.93;99.84
58975;BME280;44751;52.236;5.178;2023-06-04T00:30:36;102172.50;;;13.93;99.77
58975;BME280;44751;52.236;5.178;2023-06-04T00:33:02;102179.28;;;13.89;100.00
58975;BME280;44751;52.236;5.178;2023-06-04T00:35:31;102176.41;;;13.90;100.00
58975;BME280;44751;52.236;5.178;2023-06-04T00:38:02;102182.00;;;13.80;100.00
58975;BME280;44751;52.236;5.178;2023-06-04T00:40:29;102173.88;;;13.72;100.00
58975;BME280;44751;52.236;5.178;2023-06-04T00:42:55;102178.94;;;13.75;100.00
58975;BME280;44751;52.236;5.178;2023-06-04T00:45:25;102179.63;;;13.77;100.00
58975;BME280;44751;52.236;5.178;2023-06-04T00:47:56;102168.38;;;13.55;100.00
58975;BME280;44751;52.236;5.178;2023-06-04T00:50:23;102171.63;;;13.59;100.00
58975;BME280;44751;52.236;5.178;2023-06-04T00:52:51;102172.66;;;13.58;100.00
58975;BME280;44751;52.236;5.178;2023-06-04T00:55:17;102176.34;;;13.57;100.00
58975;BME280;44751;52.236;5.178;2023-06-04T00:57:44;102174.94;;;13.45;100.00
58975;BME280;44751;52.236;5.178;2023-06-04T01:00:12;102175.34;;;13.50;100.00
58975;BME280;44751;52.236;5.178;2023-06-04T01:02:43;102172.94;;;13.47;100.00
58975;BME280;44751;52.236;5.178;2023-06-04T01:05:26;102173.91;;;13.46;100.00
58975;BME280;44751;52.236;5.178;2023-06-04T01:07:57;102174.41;;;13.33;100.00
58975;BME280;44751;52.236;5.178;2023-06-04T01:10:23;102175.47;;;13.40;100.00
58975;BME280;44751;52.236;5.178;2023-06-04T01:12:50;102166.59;;;13.29;100.00
58975;BME280;44751;52.236;5.178;2023-06-04T01:15:19;102170.81;;;13.24;100.00
58975;BME280;44751;52.236;5.178;2023-06-04T01:17:51;102177.97;;;13.33;100.00
58975;BME280;44751;52.236;5.178;2023-06-04T01:26:04;102167.34;;;13.05;100.00
58975;BME280;44751;52.236;5.178;2023-06-04T01:28:33;102182.63;;;13.06;100.00
58975;BME280;44751;52.236;5.178;2023-06-04T01:31:00;102167.38;;;13.13;100.00
58975;BME280;44751;52.236;5.178;2023-06-04T01:33:27;102180.06;;;13.04;100.00
58975;BME280;44751;52.236;5.178;2023-06-04T01:35:54;102177.81;;;12.91;100.00
58975;BME280;44751;52.236;5.178;2023-06-04T01:38:21;102180.25;;;13.03;100.00
58975;BME280;44751;52.236;5.178;2023-06-04T01:40:48;102176.81;;;13.01;100.00
58975;BME280;44751;52.236;5.178;2023-06-04T01:43:16;102181.31;;;12.75;100.00
58975;BME280;44751;52.236;5.178;2023-06-04T01:45:42;102174.44;;;12.89;100.00
58975;BME280;44751;52.236;5.178;2023-06-04T01:48:09;102179.88;;;12.98;100.00
58975;BME280;44751;52.236;5.178;2023-06-04T01:50:35;102171.66;;;12.81;100.00
58975;BME280;44751;52.236;5.178;2023-06-04T01:53:02;102172.28;;;12.67;100.00
58975;BME280;44751;52.236;5.178;2023-06-04T01:55:28;102166.53;;;12.70;100.00
58975;BME280;44751;52.236;5.178;2023-06-04T01:57:59;102172.94;;;12.69;100.00
58975;BME280;44751;52.236;5.178;2023-06-04T02:00:28;102167.75;;;12.75;100.00
58975;BME280;44751;52.236;5.178;2023-06-04T02:02:55;102170.75;;;12.64;100.00
58975;BME280;44751;52.236;5.178;2023-06-04T02:05:21;102173.50;;;12.72;100.00
58975;BME280;44751;52.236;5.178;2023-06-04T02:07:48;102166.84;;;12.67;100.00
58975;BME280;44751;52.236;5.178;2023-06-04T02:10:16;102169.28;;;12.78;100.00
58975;BME280;44751;52.236;5.178;2023-06-04T02:13:00;102174.28;;;12.64;100.00
58975;BME280;44751;52.236;5.178;2023-06-04T02:15:30;102174.19;;;12.48;100.00
58975;BME280;44751;52.236;5.178;2023-06-04T02:17:58;102174.72;;;12.51;100.00
58975;BME280;44751;52.236;5.178;2023-06-04T02:20:30;102161.34;;;12.50;100.00
58975;BME280;44751;52.236;5.178;2023-06-04T02:22:57;102173.34;;;12.47;100.00
58975;BME280;44751;52.236;5.178;2023-06-04T02:25:23;102172.34;;;12.48;100.00
58975;BME280;44751;52.236;5.178;2023-06-04T02:27:50;102166.88;;;12.40;100.00
58975;BME280;44751;52.236;5.178;2023-06-04T02:30:16;102167.50;;;12.34;100.00
58975;BME280;44751;52.236;5.178;2023-06-04T02:32:43;102167.44;;;12.25;100.00
58975;BME280;44751;52.236;5.178;2023-06-04T02:35:15;102170.78;;;12.01;100.00
58975;BME280;44751;52.236;5.178;2023-06-04T02:37:42;102176.19;;;12.01;100.00
58975;BME280;44751;52.236;5.178;2023-06-04T02:40:10;102170.38;;;11.78;100.00
58975;BME280;44751;52.236;5.178;2023-06-04T02:42:39;102168.25;;;11.63;100.00
58975;BME280;44751;52.236;5.178;2023-06-04T02:45:06;102173.00;;;11.51;100.00
58975;BME280;44751;52.236;5.178;2023-06-04T02:47:32;102173.31;;;11.48;100.00
58975;BME280;44751;52.236;5.178;2023-06-04T02:49:59;102168.59;;;11.32;100.00
58975;BME280;44751;52.236;5.178;2023-06-04T02:52:25;102171.00;;;11.35;100.00
58975;BME280;44751;52.236;5.178;2023-06-04T02:54:52;102167.28;;;11.36;100.00
58975;BME280;44751;52.236;5.178;2023-06-04T02:57:28;102174.59;;;11.44;100.00
58975;BME280;44751;52.236;5.178;2023-06-04T02:59:55;102174.16;;;11.48;100.00
58975;BME280;44751;52.236;5.178;2023-06-04T03:02:22;102172.53;;;11.38;100.00
58975;BME280;44751;52.236;5.178;2023-06-04T03:04:48;102168.44;;;11.33;100.00
58975;BME280;44751;52.236;5.178;2023-06-04T03:07:16;102173.13;;;11.31;100.00
58975;BME280;44751;52.236;5.178;2023-06-04T03:09:46;102165.72;;;11.33;100.00
58975;BME280;44751;52.236;5.178;2023-06-04T03:12:12;102165.75;;;11.05;100.00
58975;BME280;44751;52.236;5.178;2023-06-04T03:14:39;102169.66;;;11.21;100.00
58975;BME280;44751;52.236;5.178;2023-06-04T03:17:05;102165.94;;;11.22;100.00
58975;BME280;44751;52.236;5.178;2023-06-04T03:19:39;102170.44;;;11.03;100.00
58975;BME280;44751;52.236;5.178;2023-06-04T03:22:09;102160.72;;;11.10;100.00
58975;BME280;44751;52.236;5.178;2023-06-04T03:24:38;102170.53;;;11.11;100.00
58975;BME280;44751;52.236;5.178;2023-06-04T03:27:06;102164.97;;;11.13;100.00
58975;BME280;44751;52.236;5.178;2023-06-04T03:29:39;102163.22;;;11.22;100.00
58975;BME280;44751;52.236;5.178;2023-06-04T03:32:07;102172.19;;;10.94;100.00
58975;BME280;44751;52.236;5.178;2023-06-04T03:34:33;102165.94;;;10.94;100.00
58975;BME280;44751;52.236;5.178;2023-06-04T03:37:00;102160.94;;;10.99;100.00
58975;BME280;44751;52.236;5.178;2023-06-04T03:39:26;102167.53;;;10.87;100.00
58975;BME280;44751;52.236;5.178;2023-06-04T03:41:56;102158.28;;;10.89;100.00
58975;BME280;44751;52.236;5.178;2023-06-04T03:44:23;102166.09;;;10.92;100.00
58975;BME280;44751;52.236;5.178;2023-06-04T03:46:50;102168.06;;;11.00;100.00
58975;BME280;44751;52.236;5.178;2023-06-04T03:49:17;102170.28;;;11.05;100.00
58975;BME280;44751;52.236;5.178;2023-06-04T03:51:44;102179.03;;;10.89;100.00
58975;BME280;44751;52.236;5.178;2023-06-04T03:54:11;102167.47;;;10.96;100.00
58975;BME280;44751;52.236;5.178;2023-06-04T03:56:45;102168.94;;;10.91;100.00
58975;BME280;44751;52.236;5.178;2023-06-04T03:59:11;102173.84;;;11.05;100.00
58975;BME280;44751;52.236;5.178;2023-06-04T04:01:38;102176.53;;;11.05;100.00
58975;BME280;44751;52.236;5.178;2023-06-04T04:04:05;102162.03;;;11.06;100.00
58975;BME280;44751;52.236;5.178;2023-06-04T04:06:31;102179.72;;;10.91;100.00
58975;BME280;44751;52.236;5.178;2023-06-04T04:08:59;102168.88;;;11.01;100.00
58975;BME280;44751;52.236;5.178;2023-06-04T04:11:26;102167.34;;;10.98;100.00
58975;BME280;44751;52.236;5.178;2023-06-04T04:13:52;102179.19;;;10.87;100.00
58975;BME280;44751;52.236;5.178;2023-06-04T04:16:19;102168.78;;;10.92;100.00
58975;BME280;44751;52.236;5.178;2023-06-04T04:18:47;102179.72;;;10.91;100.00
58975;BME280;44751;52.236;5.178;2023-06-04T04:21:18;102172.28;;;10.75;100.00
58975;BME280;44751;52.236;5.178;2023-06-04T04:23:46;102172.16;;;10.66;100.00
58975;BME280;44751;52.236;5.178;2023-06-04T04:26:12;102170.41;;;10.75;100.00
58975;BME280;44751;52.236;5.178;2023-06-04T04:28:41;102168.63;;;10.94;100.00
58975;BME280;44751;52.236;5.178;2023-06-04T04:31:12;102176.00;;;11.02;100.00
58975;BME280;44751;52.236;5.178;2023-06-04T04:33:39;102176.69;;;11.04;100.00
58975;BME280;44751;52.236;5.178;2023-06-04T04:36:07;102174.91;;;10.94;100.00
58975;BME280;44751;52.236;5.178;2023-06-04T04:38:37;102164.84;;;11.15;100.00
58975;BME280;44751;52.236;5.178;2023-06-04T04:41:10;102174.53;;;11.07;100.00
58975;BME280;44751;52.236;5.178;2023-06-04T04:43:37;102175.88;;;11.21;100.00
58975;BME280;44751;52.236;5.178;2023-06-04T04:46:07;102170.53;;;11.11;100.00
58975;BME280;44751;52.236;5.178;2023-06-04T04:48:34;102167.63;;;11.23;100.00
58975;BME280;44751;52.236;5.178;2023-06-04T04:51:08;102166.19;;;11.29;100.00
58975;BME280;44751;52.236;5.178;2023-06-04T04:53:35;102168.72;;;11.30;100.00
58975;BME280;44751;52.236;5.178;2023-06-04T04:56:01;102179.78;;;11.37;100.00
58975;BME280;44751;52.236;5.178;2023-06-04T04:58:28;102172.41;;;11.57;100.00
58975;BME280;44751;52.236;5.178;2023-06-04T05:00:54;102175.25;;;11.56;100.00
58975;BME280;44751;52.236;5.178;2023-06-04T05:03:26;102176.19;;;11.65;100.00
58975;BME280;44751;52.236;5.178;2023-06-04T05:05:52;102176.50;;;11.80;100.00
58975;BME280;44751;52.236;5.178;2023-06-04T05:08:19;102183.06;;;11.77;100.00
58975;BME280;44751;52.236;5.178;2023-06-04T05:10:45;102189.66;;;11.93;100.00
58975;BME280;44751;52.236;5.178;2023-06-04T05:13:12;102172.78;;;11.99;100.00
58975;BME280;44751;52.236;5.178;2023-06-04T05:15:47;102178.44;;;12.06;100.00
58975;BME280;44751;52.236;5.178;2023-06-04T05:18:18;102177.75;;;12.22;100.00
58975;BME280;44751;52.236;5.178;2023-06-04T05:20:46;102183.81;;;12.24;100.00
58975;BME280;44751;52.236;5.178;2023-06-04T05:23:13;102187.03;;;12.46;100.00
58975;BME280;44751;52.236;5.178;2023-06-04T05:25:39;102178.88;;;12.37;100.00
58975;BME280;44751;52.236;5.178;2023-06-04T05:28:06;102175.03;;;12.48;100.00
58975;BME280;44751;52.236;5.178;2023-06-04T05:30:33;102176.47;;;12.61;100.00
58975;BME280;44751;52.236;5.178;2023-06-04T05:32:59;102176.50;;;12.69;100.00
58975;BME280;44751;52.236;5.178;2023-06-04T05:35:26;102178.75;;;12.74;100.00
58975;BME280;44751;52.236;5.178;2023-06-04T05:38:01;102178.25;;;12.78;100.00
58975;BME280;44751;52.236;5.178;2023-06-04T05:40:28;102174.09;;;12.93;100.00
58975;BME280;44751;52.236;5.178;2023-06-04T05:42:55;102178.72;;;13.00;100.00
58975;BME280;44751;52.236;5.178;2023-06-04T05:45:21;102177.06;;;13.16;100.00
58975;BME280;44751;52.236;5.178;2023-06-04T05:47:48;102182.88;;;13.29;100.00
58975;BME280;44751;52.236;5.178;2023-06-04T05:50:17;102182.72;;;13.31;100.00
58975;BME280;44751;52.236;5.178;2023-06-04T05:52:43;102183.59;;;13.40;100.00
58975;BME280;44751;52.236;5.178;2023-06-04T05:55:10;102191.53;;;13.41;100.00
58975;BME280;44751;52.236;5.178;2023-06-04T05:57:37;102194.09;;;13.43;100.00
58975;BME280;44751;52.236;5.178;2023-06-04T06:00:03;102193.97;;;13.53;100.00
58975;BME280;44751;52.236;5.178;2023-06-04T06:02:34;102189.09;;;13.65;100.00
58975;BME280;44751;52.236;5.178;2023-06-04T06:05:03;102195.91;;;13.77;100.00
58975;BME280;44751;52.236;5.178;2023-06-04T06:07:30;102199.28;;;13.96;100.00
58975;BME280;44751;52.236;5.178;2023-06-04T06:09:57;102197.59;;;14.03;100.00
58975;BME280;44751;52.236;5.178;2023-06-04T06:12:26;102198.63;;;14.02;100.00
58975;BME280;44751;52.236;5.178;2023-06-04T06:14:52;102201.66;;;14.07;100.00
58975;BME280;44751;52.236;5.178;2023-06-04T06:17:21;102197.78;;;14.18;100.00
58975;BME280;44751;52.236;5.178;2023-06-04T06:19:48;102194.69;;;14.55;100.00
58975;BME280;44751;52.236;5.178;2023-06-04T06:22:14;102200.59;;;14.67;100.00
58975;BME280;44751;52.236;5.178;2023-06-04T06:24:43;102205.88;;;14.77;100.00
58975;BME280;44751;52.236;5.178;2023-06-04T06:27:14;102203.63;;;14.80;100.00
58975;BME280;44751;52.236;5.178;2023-06-04T06:29:41;102215.00;;;14.92;100.00
58975;BME280;44751;52.236;5.178;2023-06-04T06:32:09;102201.38;;;15.01;100.00
58975;BME280;44751;52.236;5.178;2023-06-04T06:34:36;102206.31;;;14.97;100.00
58975;BME280;44751;52.236;5.178;2023-06-04T06:37:03;102206.41;;;15.20;100.00
58975;BME280;44751;52.236;5.178;2023-06-04T06:39:31;102200.34;;;15.42;100.00
58975;BME280;44751;52.236;5.178;2023-06-04T06:41:58;102213.00;;;15.58;100.00
58975;BME280;44751;52.236;5.178;2023-06-04T06:44:27;102208.34;;;15.67;100.00
58975;BME280;44751;52.236;5.178;2023-06-04T06:47:11;102207.31;;;15.91;99.36
58975;BME280;44751;52.236;5.178;2023-06-04T06:49:46;102204.50;;;15.84;99.58
58975;BME280;44751;52.236;5.178;2023-06-04T06:52:13;102215.00;;;15.96;98.71
58975;BME280;44751;52.236;5.178;2023-06-04T06:54:47;102213.06;;;16.05;95.51
58975;BME280;44751;52.236;5.178;2023-06-04T06:57:14;102210.63;;;16.10;92.76
58975;BME280;44751;52.236;5.178;2023-06-04T06:59:57;102209.44;;;16.27;92.76
58975;BME280;44751;52.236;5.178;2023-06-04T07:02:37;102204.41;;;16.39;93.27
58975;BME280;44751;52.236;5.178;2023-06-04T07:05:17;102228.34;;;16.44;90.26
58975;BME280;44751;52.236;5.178;2023-06-04T07:07:52;102229.13;;;16.68;91.26
58975;BME280;44751;52.236;5.178;2023-06-04T07:10:22;102223.59;;;16.61;90.54
58975;BME280;44751;52.236;5.178;2023-06-04T07:13:02;102221.84;;;16.99;89.72
58975;BME280;44751;52.236;5.178;2023-06-04T07:15:37;102220.31;;;16.81;88.56
58975;BME280;44751;52.236;5.178;2023-06-04T07:18:09;102218.81;;;16.78;90.77
58975;BME280;44751;52.236;5.178;2023-06-04T07:20:36;102218.47;;;17.12;90.82
58975;BME280;44751;52.236;5.178;2023-06-04T07:23:02;102226.63;;;17.27;87.72
58975;BME280;44751;52.236;5.178;2023-06-04T07:25:29;102222.88;;;17.28;87.34
58975;BME280;44751;52.236;5.178;2023-06-04T07:27:56;102230.41;;;17.63;88.27
58975;BME280;44751;52.236;5.178;2023-06-04T07:30:30;102225.56;;;17.43;86.99
58975;BME280;44751;52.236;5.178;2023-06-04T07:32:57;102234.53;;;17.74;84.80
58975;BME280;44751;52.236;5.178;2023-06-04T07:35:24;102229.50;;;17.55;85.65
58975;BME280;44751;52.236;5.178;2023-06-04T07:37:51;102228.88;;;17.38;82.62
58975;BME280;44751;52.236;5.178;2023-06-04T07:40:20;102233.97;;;17.63;85.34
58975;BME280;44751;52.236;5.178;2023-06-04T07:42:47;102228.88;;;17.97;83.96
58975;BME280;44751;52.236;5.178;2023-06-04T07:45:14;102226.59;;;18.23;85.99
58975;BME280;44751;52.236;5.178;2023-06-04T07:47:42;102226.31;;;18.39;85.32
58975;BME280;44751;52.236;5.178;2023-06-04T07:50:11;102233.34;;;18.49;82.36
58975;BME280;44751;52.236;5.178;2023-06-04T07:52:37;102229.66;;;18.63;82.52
58975;BME280;44751;52.236;5.178;2023-06-04T07:55:05;102234.03;;;18.93;82.24
58975;BME280;44751;52.236;5.178;2023-06-04T07:57:33;102233.16;;;19.21;81.04
58975;BME280;44751;52.236;5.178;2023-06-04T08:00:01;102230.03;;;19.24;78.29
58975;BME280;44751;52.236;5.178;2023-06-04T08:02:30;102223.34;;;18.98;77.54
58975;BME280;44751;52.236;5.178;2023-06-04T08:04:57;102229.97;;;18.75;77.08
58975;BME280;44751;52.236;5.178;2023-06-04T08:07:23;102220.91;;;19.10;77.84
58975;BME280;44751;52.236;5.178;2023-06-04T08:09:50;102225.47;;;19.38;77.98
58975;BME280;44751;52.236;5.178;2023-06-04T08:12:17;102232.38;;;19.34;76.75
58975;BME280;44751;52.236;5.178;2023-06-04T08:14:43;102230.16;;;19.58;74.93
58975;BME280;44751;52.236;5.178;2023-06-04T08:17:10;102232.09;;;19.78;75.81
58975;BME280;44751;52.236;5.178;2023-06-04T08:19:42;102227.50;;;19.98;74.05
58975;BME280;44751;52.236;5.178;2023-06-04T08:22:09;102230.50;;;20.31;73.13
58975;BME280;44751;52.236;5.178;2023-06-04T08:24:36;102233.22;;;20.17;74.76
58975;BME280;44751;52.236;5.178;2023-06-04T08:27:03;102237.63;;;20.72;74.33
58975;BME280;44751;52.236;5.178;2023-06-04T08:29:32;102236.53;;;21.00;72.81
58975;BME280;44751;52.236;5.178;2023-06-04T08:32:00;102225.34;;;21.02;71.51
58975;BME280;44751;52.236;5.178;2023-06-04T08:34:27;102237.00;;;20.70;72.62
58975;BME280;44751;52.236;5.178;2023-06-04T08:36:54;102235.53;;;20.47;69.31
58975;BME280;44751;52.236;5.178;2023-06-04T08:39:20;102233.66;;;20.28;69.69
58975;BME280;44751;52.236;5.178;2023-06-04T08:41:58;102238.88;;;20.76;68.49
58975;BME280;44751;52.236;5.178;2023-06-04T08:44:27;102236.78;;;20.79;68.57
58975;BME280;44751;52.236;5.178;2023-06-04T08:47:04;102240.22;;;21.26;67.38
58975;BME280;44751;52.236;5.178;2023-06-04T08:49:40;102231.91;;;21.47;68.25
58975;BME280;44751;52.236;5.178;2023-06-04T08:52:07;102238.63;;;21.90;67.31
58975;BME280;44751;52.236;5.178;2023-06-04T08:54:33;102234.97;;;22.03;65.31
58975;BME280;44751;52.236;5.178;2023-06-04T08:57:00;102238.41;;;21.91;65.26
58975;BME280;44751;52.236;5.178;2023-06-04T08:59:41;102231.81;;;21.67;65.59
58975;BME280;44751;52.236;5.178;2023-06-04T09:02:08;102235.91;;;21.90;67.04
58975;BME280;44751;52.236;5.178;2023-06-04T09:04:35;102232.22;;;22.28;64.72
58975;BME280;44751;52.236;5.178;2023-06-04T09:07:02;102242.81;;;22.76;65.37
58975;BME280;44751;52.236;5.178;2023-06-04T09:09:31;102233.78;;;22.68;63.13
58975;BME280;44751;52.236;5.178;2023-06-04T09:11:58;102239.63;;;22.53;64.07
58975;BME280;44751;52.236;5.178;2023-06-04T09:14:28;102242.22;;;23.11;62.97
58975;BME280;44751;52.236;5.178;2023-06-04T09:16:56;102239.69;;;23.09;62.23
58975;BME280;44751;52.236;5.178;2023-06-04T09:19:33;102233.50;;;23.14;63.99
58975;BME280;44751;52.236;5.178;2023-06-04T09:22:00;102238.47;;;23.05;62.25
58975;BME280;44751;52.236;5.178;2023-06-04T09:24:42;102244.47;;;23.33;60.60
58975;BME280;44751;52.236;5.178;2023-06-04T09:27:16;102246.00;;;23.10;60.62
58975;BME280;44751;52.236;5.178;2023-06-04T09:29:50;102248.69;;;22.98;61.26
58975;BME280;44751;52.236;5.178;2023-06-04T09:32:33;102240.13;;;23.25;59.12
58975;BME280;44751;52.236;5.178;2023-06-04T09:35:14;102245.16;;;23.47;59.02
58975;BME280;44751;52.236;5.178;2023-06-04T09:37:56;102247.44;;;23.81;59.45
58975;BME280;44751;52.236;5.178;2023-06-04T09:40:37;102248.88;;;24.14;58.42
58975;BME280;44751;52.236;5.178;2023-06-04T09:43:04;102236.19;;;23.82;58.29
58975;BME280;44751;52.236;5.178;2023-06-04T09:45:35;102245.44;;;23.88;58.72
58975;BME280;44751;52.236;5.178;2023-06-04T09:48:05;102235.75;;;23.97;57.42
58975;BME280;44751;52.236;5.178;2023-06-04T09:50:34;102245.06;;;24.15;57.14
58975;BME280;44751;52.236;5.178;2023-06-04T09:53:14;102248.91;;;24.26;56.92
58975;BME280;44751;52.236;5.178;2023-06-04T09:55:42;102245.53;;;24.48;55.23
58975;BME280;44751;52.236;5.178;2023-06-04T09:58:11;102245.06;;;24.39;56.18
58975;BME280;44751;52.236;5.178;2023-06-04T10:00:38;102249.50;;;24.40;56.28
58975;BME280;44751;52.236;5.178;2023-06-04T10:03:11;102250.34;;;24.65;54.59
58975;BME280;44751;52.236;5.178;2023-06-04T10:05:57;102241.81;;;24.66;53.29
58975;BME280;44751;52.236;5.178;2023-06-04T10:08:26;102255.00;;;24.28;54.43
58975;BME280;44751;52.236;5.178;2023-06-04T10:10:58;102244.81;;;24.41;54.75
58975;BME280;44751;52.236;5.178;2023-06-04T10:14:00;102251.53;;;24.81;54.43
58975;BME280;44751;52.236;5.178;2023-06-04T10:16:30;102244.22;;;24.39;53.33
58975;BME280;44751;52.236;5.178;2023-06-04T10:18:59;102247.47;;;24.59;52.97
58975;BME280;44751;52.236;5.178;2023-06-04T10:21:29;102250.34;;;24.88;55.10
58975;BME280;44751;52.236;5.178;2023-06-04T10:24:00;102249.00;;;24.67;55.62
58975;BME280;44751;52.236;5.178;2023-06-04T10:26:27;102245.50;;;25.08;55.68
58975;BME280;44751;52.236;5.178;2023-06-04T10:28:56;102241.81;;;24.78;53.71
58975;BME280;44751;52.236;5.178;2023-06-04T10:31:23;102235.91;;;25.10;56.02
58975;BME280;44751;52.236;5.178;2023-06-04T10:33:55;102246.13;;;25.97;54.62
58975;BME280;44751;52.236;5.178;2023-06-04T10:36:23;102235.00;;;25.22;53.94
58975;BME280;44751;52.236;5.178;2023-06-04T10:38:57;102246.34;;;25.49;54.28
58975;BME280;44751;52.236;5.178;2023-06-04T10:41:24;102240.97;;;25.43;55.71
58975;BME280;44751;52.236;5.178;2023-06-04T10:44:01;102246.88;;;24.69;55.80
58975;BME280;44751;52.236;5.178;2023-06-04T10:46:38;102235.69;;;24.76;60.97
58975;BME280;44751;52.236;5.178;2023-06-04T10:49:09;102241.13;;;24.47;61.25
58975;BME280;44751;52.236;5.178;2023-06-04T10:51:36;102249.50;;;24.76;64.60
58975;BME280;44751;52.236;5.178;2023-06-04T10:54:03;102231.03;;;24.53;65.85
58975;BME280;44751;52.236;5.178;2023-06-04T10:56:32;102242.53;;;24.61;60.46
58975;BME280;44751;52.236;5.178;2023-06-04T10:59:14;102246.16;;;24.26;65.09
58975;BME280;44751;52.236;5.178;2023-06-04T11:01:42;102248.41;;;24.29;66.96
58975;BME280;44751;52.236;5.178;2023-06-04T11:06:46;102241.00;;;24.66;67.76
58975;BME280;44751;52.236;5.178;2023-06-04T11:09:13;102243.50;;;24.79;67.96
58975;BME280;44751;52.236;5.178;2023-06-04T11:11:43;102240.66;;;24.50;67.32
58975;BME280;44751;52.236;5.178;2023-06-04T11:14:10;102241.22;;;24.76;69.55
58975;BME280;44751;52.236;5.178;2023-06-04T11:16:38;102238.94;;;24.49;68.75
58975;BME280;44751;52.236;5.178;2023-06-04T11:19:05;102242.31;;;24.51;69.47
58975;BME280;44751;52.236;5.178;2023-06-04T11:21:35;102238.81;;;24.44;69.35
58975;BME280;44751;52.236;5.178;2023-06-04T11:24:03;102241.44;;;24.27;68.98
58975;BME280;44751;52.236;5.178;2023-06-04T11:26:48;102237.03;;;24.49;68.60
58975;BME280;44751;52.236;5.178;2023-06-04T11:29:14;102235.81;;;24.21;68.15
58975;BME280;44751;52.236;5.178;2023-06-04T11:31:46;102233.53;;;24.42;68.01
58975;BME280;44751;52.236;5.178;2023-06-04T11:34:22;102243.25;;;24.45;66.69
58975;BME280;44751;52.236;5.178;2023-06-04T11:36:49;102226.34;;;24.17;67.80
58975;BME280;44751;52.236;5.178;2023-06-04T11:39:18;102231.09;;;23.98;68.54
58975;BME280;44751;52.236;5.178;2023-06-04T11:41:48;102229.19;;;23.68;69.97
58975;BME280;44751;52.236;5.178;2023-06-04T11:44:19;102226.56;;;24.16;69.40
58975;BME280;44751;52.236;5.178;2023-06-04T11:46:47;102230.28;;;24.09;68.44
58975;BME280;44751;52.236;5.178;2023-06-04T11:49:18;102226.59;;;23.73;66.79
58975;BME280;44751;52.236;5.178;2023-06-04T11:51:52;102223.59;;;24.41;65.29
58975;BME280;44751;52.236;5.178;2023-06-04T11:54:20;102230.19;;;24.28;66.61
58975;BME280;44751;52.236;5.178;2023-06-04T11:56:51;102227.50;;;24.09;67.63
58975;BME280;44751;52.236;5.178;2023-06-04T11:59:21;102220.72;;;24.48;66.68
58975;BME280;44751;52.236;5.178;2023-06-04T12:01:50;102216.97;;;24.06;65.77
58975;BME280;44751;52.236;5.178;2023-06-04T12:04:31;102217.25;;;23.86;66.39
58975;BME280;44751;52.236;5.178;2023-06-04T12:07:04;102218.00;;;23.81;66.97
58975;BME280;44751;52.236;5.178;2023-06-04T12:09:34;102220.06;;;23.98;66.73
58975;BME280;44751;52.236;5.178;2023-06-04T12:12:05;102214.66;;;23.60;67.09
58975;BME280;44751;52.236;5.178;2023-06-04T12:14:33;102217.88;;;24.00;66.25
58975;BME280;44751;52.236;5.178;2023-06-04T12:17:08;102198.66;;;24.12;66.57
58975;BME280;44751;52.236;5.178;2023-06-04T12:19:50;102217.16;;;23.93;65.56
58975;BME280;44751;52.236;5.178;2023-06-04T12:22:20;102199.28;;;23.83;65.59
58975;BME280;44751;52.236;5.178;2023-06-04T12:24:50;102198.19;;;23.84;65.78
58975;BME280;44751;52.236;5.178;2023-06-04T12:27:20;102225.09;;;24.01;65.90
58975;BME280;44751;52.236;5.178;2023-06-04T12:30:01;102210.66;;;23.75;65.05
58975;BME280;44751;52.236;5.178;2023-06-04T12:32:28;102218.38;;;23.54;65.96
58975;BME280;44751;52.236;5.178;2023-06-04T12:34:56;102213.91;;;23.84;64.94
58975;BME280;44751;52.236;5.178;2023-06-04T12:37:23;102217.16;;;23.50;65.15
58975;BME280;44751;52.236;5.178;2023-06-04T12:39:56;102219.28;;;24.21;65.21
58975;BME280;44751;52.236;5.178;2023-06-04T12:42:22;102224.69;;;24.40;64.61
58975;BME280;44751;52.236;5.178;2023-06-04T12:44:49;102224.56;;;24.23;63.80
58975;BME280;44751;52.236;5.178;2023-06-04T12:47:16;102222.75;;;24.17;63.82
58975;BME280;44751;52.236;5.178;2023-06-04T12:49:44;102213.69;;;23.97;63.79
58975;BME280;44751;52.236;5.178;2023-06-04T12:52:11;102212.13;;;23.90;63.33
58975;BME280;44751;52.236;5.178;2023-06-04T12:54:39;102214.78;;;23.96;63.62
58975;BME280;44751;52.236;5.178;2023-06-04T12:57:06;102209.72;;;23.93;63.70
58975;BME280;44751;52.236;5.178;2023-06-04T12:59:33;102220.75;;;23.93;62.89
58975;BME280;44751;52.236;5.178;2023-06-04T13:01:59;102217.06;;;23.99;62.07
58975;BME280;44751;52.236;5.178;2023-06-04T13:04:28;102214.31;;;23.99;61.97